Time;durP1;ratioP1;P1;durP2;ratioP2;P2;SDS_P1;SDS_P2;PMS_P1;PMS_P2;Temp;Humidity;BMP_temperature;BMP_pressure;BME280_temperature;BME280_humidity;BME280_pressure;Samples;Min_cycle;Max_cycle;Signal;HPM_P1;HPM_P2
2022/05/14 00:00:45;;;;;;;1.17;0.60;;;12.90;97.90;;;12.51;66.17;97693.38;4989735;28;20227;-44
2022/05/14 00:03:11;;;;;;;0.50;0.50;;;12.80;97.90;;;12.49;66.19;97697.84;4985385;28;20125;-44
2022/05/14 00:05:37;;;;;;;2.17;0.50;;;12.80;97.90;;;12.46;66.69;97697.97;4982781;28;20612;-45
2022/05/14 00:08:03;;;;;;;1.15;0.60;;;12.70;98.10;;;12.41;67.05;97691.06;4986105;28;20030;-48
2022/05/14 00:10:32;;;;;;;2.33;0.50;;;12.70;98.20;;;12.36;67.53;97690.41;4984138;28;20100;-45
2022/05/14 00:13:04;;;;;;;1.80;0.70;;;12.70;98.80;;;12.32;68.05;97687.94;4981052;28;20152;-44
2022/05/14 00:15:39;;;;;;;1.75;0.55;;;12.60;98.60;;;12.33;67.01;97692.31;4983784;28;20083;-44
2022/05/14 00:18:07;;;;;;;3.25;0.65;;;12.60;98.30;;;12.33;66.45;97694.97;4983817;28;20670;-43
2022/05/14 00:20:36;;;;;;;2.05;0.70;;;12.60;98.20;;;12.29;67.00;97688.94;4982821;28;20064;-43
2022/05/14 00:23:03;;;;;;;2.72;1.10;;;12.60;98.30;;;12.25;66.15;97679.38;4983354;28;20037;-44
2022/05/14 00:25:29;;;;;;;2.38;0.85;;;12.60;98.00;;;12.31;66.07;97699.44;4984720;28;20034;-43
2022/05/14 00:27:55;;;;;;;2.33;0.90;;;12.60;98.40;;;12.30;66.11;97695.94;4983665;28;20112;-45
2022/05/14 00:30:25;;;;;;;6.20;1.08;;;12.60;98.10;;;12.28;67.00;97692.50;4981530;28;20037;-44
2022/05/14 00:32:51;;;;;;;0.93;0.55;;;12.60;98.30;;;12.22;68.98;97690.94;4987620;28;20026;-44
2022/05/14 00:35:17;;;;;;;1.63;0.60;;;12.60;99.00;;;12.16;67.91;97691.16;4987137;28;20065;-44
2022/05/14 00:37:44;;;;;;;2.38;0.70;;;12.50;98.70;;;12.13;67.98;97690.44;4984242;28;20042;-45
2022/05/14 00:40:35;;;;;;;2.78;0.80;;;12.50;98.70;;;12.05;69.25;97692.53;4989039;28;20040;-45
2022/05/14 00:43:01;;;;;;;2.17;0.75;;;12.40;99.10;;;11.94;70.32;97682.34;4983853;28;20136;-45
2022/05/14 00:45:28;;;;;;;5.68;0.73;;;12.30;99.50;;;11.88;71.70;97683.41;4984751;28;20534;-43
2022/05/14 00:47:58;;;;;;;1.73;0.60;;;12.20;99.90;;;11.81;72.51;97681.94;4984822;28;20041;-47
2022/05/14 00:50:39;;;;;;;0.90;0.60;;;12.20;99.90;;;11.75;72.26;97695.34;4983080;28;20029;-46
2022/05/14 00:53:12;;;;;;;0.77;0.60;;;12.10;99.90;;;11.75;71.83;97690.06;4989679;28;20037;-44
2022/05/14 00:55:39;;;;;;;1.08;0.55;;;12.10;99.90;;;11.76;71.92;97691.81;4985090;28;20045;-44
2022/05/14 00:58:07;;;;;;;2.20;0.70;;;12.10;99.90;;;11.72;73.48;97682.25;4985925;28;20452;-45
2022/05/14 01:00:33;;;;;;;1.75;0.73;;;12.00;99.90;;;11.59;72.86;97666.88;4998554;28;20034;-44
2022/05/14 01:02:58;;;;;;;1.63;0.70;;;12.00;99.90;;;11.69;72.97;97682.38;4985293;28;20034;-44
2022/05/14 01:05:25;;;;;;;1.20;0.60;;;12.00;99.90;;;11.62;75.18;97685.22;4984203;28;20042;-44
2022/05/14 01:07:54;;;;;;;1.70;0.90;;;12.00;99.90;;;11.53;78.95;97682.94;4985751;28;20088;-46
2022/05/14 01:10:23;;;;;;;1.65;1.15;;;11.90;99.90;;;11.41;81.88;97681.59;4999225;28;20030;-47
2022/05/14 01:12:59;;;;;;;4.13;1.30;;;11.80;99.90;;;11.31;84.52;97672.28;5001217;28;20042;-47
2022/05/14 01:15:51;;;;;;;3.63;1.45;;;11.70;99.90;;;11.21;86.66;97673.50;4999826;28;20045;-47
2022/05/14 01:18:22;;;;;;;3.15;1.40;;;11.60;99.90;;;11.12;88.82;97679.97;4983234;28;20042;-47
2022/05/14 01:20:56;;;;;;;2.55;1.50;;;11.50;99.90;;;11.03;89.70;97682.94;4985052;28;20091;-44
2022/05/14 01:26:36;;;;;;;2.80;1.65;;;11.40;99.90;;;10.68;91.09;97648.06;4983275;28;20604;-43
2022/05/14 01:29:11;;;;;;;2.92;1.40;;;11.30;99.90;;;10.64;92.09;97649.06;4985982;28;20068;-46
2022/05/14 01:31:38;;;;;;;3.95;1.63;;;11.20;99.90;;;10.76;93.40;97688.22;4987198;28;20034;-44
2022/05/14 01:34:08;;;;;;;5.10;1.58;;;11.10;99.90;;;10.72;94.61;97686.59;4985828;28;20083;-45
2022/05/14 01:36:36;;;;;;;5.50;1.85;;;11.10;99.90;;;10.67;95.71;97688.53;4982943;28;20045;-45
2022/05/14 01:39:03;;;;;;;4.65;1.95;;;11.00;99.90;;;10.59;96.11;97677.38;4983633;28;20033;-44
2022/05/14 01:41:29;;;;;;;2.05;1.60;;;11.00;99.90;;;10.56;96.34;97677.47;4982914;28;20053;-46
2022/05/14 01:43:55;;;;;;;4.03;1.63;;;10.90;99.90;;;10.47;96.74;97673.34;4987834;28;20107;-47
2022/05/14 01:46:21;;;;;;;2.70;1.63;;;10.90;99.90;;;10.49;97.31;97688.19;4981338;28;20116;-43
2022/05/14 01:48:47;;;;;;;2.40;1.20;;;10.80;99.90;;;10.43;96.84;97684.91;4983343;28;20401;-45
2022/05/14 01:51:14;;;;;;;2.75;1.30;;;10.80;99.90;;;10.41;96.37;97684.97;4983069;28;20040;-47
2022/05/14 01:53:40;;;;;;;3.42;1.13;;;10.80;99.90;;;10.36;96.80;97676.34;4982159;28;20041;-44
2022/05/14 01:56:06;;;;;;;3.00;1.65;;;10.80;99.90;;;10.37;96.85;97679.81;4982796;28;20046;-46
2022/05/14 01:58:38;;;;;;;3.00;1.63;;;10.80;99.90;;;10.38;97.41;97682.41;4985494;28;20068;-46
2022/05/14 02:01:34;;;;;;;2.90;2.03;;;10.80;99.90;;;10.35;98.27;97681.66;4982680;28;20038;-46
2022/05/14 02:04:12;;;;;;;2.28;1.77;;;10.80;99.90;;;10.31;99.42;97686.16;4980987;28;20045;-44
2022/05/14 02:06:40;;;;;;;3.53;1.88;;;10.70;99.90;;;10.30;100.00;97679.13;4985452;28;21810;-46
2022/05/14 02:09:09;;;;;;;3.50;2.05;;;10.70;99.90;;;10.24;100.00;97682.81;4991588;28;20038;-45
2022/05/14 02:11:36;;;;;;;2.83;1.90;;;10.70;99.90;;;10.19;100.00;97678.59;4982207;28;20104;-44
2022/05/14 02:14:03;;;;;;;6.40;2.10;;;10.60;99.90;;;10.17;100.00;97683.06;4991023;28;20133;-46
2022/05/14 02:16:28;;;;;;;4.60;2.33;;;10.60;99.90;;;10.13;100.00;97688.41;4987666;28;20557;-44
2022/05/14 02:18:54;;;;;;;5.45;1.90;;;10.50;99.90;;;10.08;100.00;97678.94;4989200;28;20473;-45
2022/05/14 02:21:24;;;;;;;5.10;1.80;;;10.50;99.90;;;10.07;100.00;97685.13;4984046;28;20040;-43
2022/05/14 02:23:51;;;;;;;3.28;1.92;;;10.40;99.90;;;10.04;100.00;97682.56;4984680;28;20044;-46
2022/05/14 02:26:18;;;;;;;3.42;2.00;;;10.50;99.90;;;9.99;100.00;97677.44;4986025;28;20069;-45
2022/05/14 02:28:44;;;;;;;6.05;2.30;;;10.40;99.90;;;9.98;100.00;97682.75;4982830;28;20030;-46
2022/05/14 02:31:10;;;;;;;4.05;2.40;;;10.40;99.90;;;9.96;100.00;97671.38;4984290;28;20033;-44
2022/05/14 02:33:36;;;;;;;2.95;2.30;;;10.30;99.90;;;9.88;100.00;97674.25;4983677;28;20069;-43
2022/05/14 02:36:04;;;;;;;3.70;2.40;;;10.30;99.90;;;9.91;100.00;97682.09;4983008;28;20494;-47
2022/05/14 02:38:32;;;;;;;3.78;2.00;;;10.30;99.90;;;9.88;100.00;97677.75;4983236;28;20607;-44
2022/05/14 02:40:58;;;;;;;3.00;1.90;;;10.30;99.90;;;9.82;100.00;97685.84;4981090;28;20152;-45
2022/05/14 02:43:25;;;;;;;3.53;2.10;;;10.20;99.90;;;9.81;100.00;97681.47;4979096;28;21012;-48
2022/05/14 02:45:51;;;;;;;4.07;2.30;;;10.20;99.90;;;9.59;100.00;97654.06;4984580;28;20592;-47
2022/05/14 02:48:17;;;;;;;3.45;2.03;;;10.20;99.90;;;9.70;100.00;97679.16;5010434;28;20041;-44
2022/05/14 02:50:44;;;;;;;3.30;2.03;;;10.20;99.90;;;9.74;100.00;97682.56;4982904;28;20041;-45
2022/05/14 02:53:10;;;;;;;4.35;2.30;;;10.20;99.90;;;9.72;100.00;97673.84;4984575;28;20168;-44
2022/05/14 02:55:36;;;;;;;2.95;1.80;;;10.10;99.90;;;9.70;100.00;97683.56;4982562;28;20192;-43
2022/05/14 02:58:02;;;;;;;5.80;2.30;;;10.10;99.90;;;9.68;100.00;97686.25;4984497;28;20042;-48
2022/05/14 03:00:27;;;;;;;6.70;1.98;;;10.10;99.90;;;9.63;100.00;97685.50;4985228;28;20121;-44
2022/05/14 03:02:53;;;;;;;4.07;2.08;;;10.10;99.90;;;9.61;100.00;97689.09;4982730;28;20030;-44
2022/05/14 03:05:22;;;;;;;3.72;1.80;;;10.00;99.90;;;9.58;100.00;97687.41;4980942;28;20045;-44
2022/05/14 03:07:48;;;;;;;4.85;2.10;;;10.00;99.90;;;9.53;100.00;97677.00;4985584;28;20092;-44
2022/05/14 03:10:15;;;;;;;5.50;2.00;;;10.00;99.90;;;9.57;100.00;97688.31;4981995;28;20025;-44
2022/05/14 03:12:41;;;;;;;3.25;2.00;;;10.00;99.90;;;9.57;100.00;97688.31;4983097;28;20030;-47
2022/05/14 03:15:09;;;;;;;3.45;2.28;;;10.00;99.90;;;9.53;100.00;97682.28;4983539;28;20384;-46
2022/05/14 03:17:35;;;;;;;4.20;2.13;;;10.00;99.90;;;9.50;100.00;97685.00;4987767;28;20045;-44
2022/05/14 03:20:08;;;;;;;3.47;1.85;;;9.90;99.90;;;9.49;100.00;97675.38;4987226;28;20168;-44
2022/05/14 03:22:39;;;;;;;2.95;2.08;;;9.90;99.90;;;9.49;100.00;97677.13;4989834;28;20030;-44
2022/05/14 03:25:06;;;;;;;3.88;1.60;;;9.90;99.90;;;9.48;100.00;97678.06;4989130;28;20066;-45
2022/05/14 03:27:32;;;;;;;6.38;1.85;;;9.90;99.90;;;9.46;100.00;97674.59;4987736;28;20410;-45
2022/05/14 03:29:58;;;;;;;4.97;1.92;;;9.90;99.90;;;9.42;100.00;97673.81;4985007;28;20032;-47
2022/05/14 03:32:26;;;;;;;3.33;1.75;;;9.90;99.90;;;9.44;100.00;97684.28;4988980;28;20273;-44
2022/05/14 03:34:54;;;;;;;3.92;1.80;;;9.90;99.90;;;9.43;100.00;97675.53;4988583;28;20030;-47
2022/05/14 03:37:21;;;;;;;2.25;1.38;;;9.80;99.90;;;9.42;100.00;97686.09;4993758;28;20030;-46
2022/05/14 03:39:47;;;;;;;4.97;1.70;;;9.80;99.90;;;9.36;100.00;97679.25;4999401;28;20067;-46
2022/05/14 03:42:13;;;;;;;3.10;2.03;;;9.80;99.90;;;9.39;100.00;97689.69;4994885;28;20026;-43
2022/05/14 03:44:39;;;;;;;2.38;1.70;;;9.80;99.90;;;9.40;100.00;97687.91;5025180;28;20037;-45
2022/05/14 03:47:04;;;;;;;3.83;2.10;;;9.80;99.90;;;9.40;100.00;97690.56;4996790;28;20038;-44
2022/05/14 03:49:30;;;;;;;4.47;1.90;;;9.80;99.90;;;9.34;100.00;97684.53;4995763;28;20133;-45
2022/05/14 03:51:56;;;;;;;3.25;2.10;;;9.80;99.90;;;9.38;100.00;97680.06;4995251;28;20991;-44
2022/05/14 03:54:22;;;;;;;6.22;2.00;;;9.80;99.90;;;9.38;100.00;97687.09;4995368;28;20032;-44
2022/05/14 03:56:47;;;;;;;3.42;1.73;;;9.70;99.90;;;9.35;100.00;97691.56;4996513;28;20033;-44
2022/05/14 03:59:13;;;;;;;4.28;1.85;;;9.80;99.90;;;9.38;100.00;97684.47;4997618;28;20679;-44
2022/05/14 04:01:39;;;;;;;7.65;2.00;;;9.80;99.90;;;9.39;100.00;97683.59;4996545;28;20414;-46
2022/05/14 04:04:05;;;;;;;1.92;1.50;;;9.80;99.90;;;9.40;100.00;97685.28;5001865;28;20145;-45
2022/05/14 04:06:31;;;;;;;5.05;1.90;;;9.80;99.90;;;9.42;100.00;97683.47;4998478;28;20117;-43
2022/05/14 04:08:57;;;;;;;3.03;1.95;;;9.80;99.90;;;9.43;100.00;97679.94;4999914;28;20025;-43
2022/05/14 04:11:23;;;;;;;3.55;2.30;;;9.80;99.90;;;9.45;100.00;97688.66;4993238;28;20049;-45
2022/05/14 04:13:49;;;;;;;3.28;1.90;;;9.90;99.90;;;9.48;100.00;97680.69;5004496;28;20033;-47
2022/05/14 04:16:14;;;;;;;3.60;2.00;;;9.90;99.90;;;9.49;100.00;97680.66;5004469;28;20693;-44
2022/05/14 04:18:40;;;;;;;3.97;2.13;;;9.90;99.90;;;9.46;100.00;97677.25;5004868;28;20112;-45
2022/05/14 04:21:06;;;;;;;4.18;1.98;;;9.90;99.90;;;9.54;100.00;97685.75;5002303;28;20034;-45
2022/05/14 04:23:32;;;;;;;3.42;1.80;;;9.90;99.90;;;9.52;100.00;97671.78;5004008;28;20121;-47
2022/05/14 04:25:59;;;;;;;2.63;1.90;;;9.90;99.90;;;9.57;100.00;97674.31;5002671;28;20036;-47
2022/05/14 04:28:26;;;;;;;3.50;1.88;;;10.00;99.90;;;9.65;100.00;97681.06;4995453;28;20030;-44
2022/05/14 04:30:52;;;;;;;5.05;1.90;;;10.10;99.90;;;9.65;100.00;97678.41;4992658;28;20512;-44
2022/05/14 04:33:19;;;;;;;3.75;1.90;;;10.10;99.90;;;9.78;100.00;97689.50;4994798;28;20072;-43
2022/05/14 04:35:45;;;;;;;3.08;2.05;;;10.10;99.90;;;9.86;100.00;97687.47;4992678;28;20034;-44
2022/05/14 04:38:11;;;;;;;7.57;2.00;;;10.20;99.90;;;9.94;100.00;97687.22;4994657;28;20040;-44
2022/05/14 04:40:38;;;;;;;4.00;1.75;;;10.30;99.90;;;10.00;100.00;97683.59;4993798;28;20073;-45
2022/05/14 04:43:09;;;;;;;1.77;1.45;;;10.40;99.90;;;10.05;100.00;97685.16;4987708;28;20057;-46
2022/05/14 04:45:36;;;;;;;3.92;1.70;;;10.50;99.90;;;10.12;100.00;97686.69;4978841;28;20133;-45
2022/05/14 04:48:02;;;;;;;6.30;1.92;;;10.60;99.90;;;10.23;100.00;97688.13;4985016;28;20390;-45
2022/05/14 04:50:28;;;;;;;5.00;1.83;;;10.60;99.90;;;10.30;100.00;97687.03;4983882;28;20038;-44
2022/05/14 04:52:54;;;;;;;5.25;2.13;;;10.70;99.90;;;10.37;100.00;97696.50;4982414;28;20114;-45
2022/05/14 04:55:19;;;;;;;6.05;2.00;;;10.80;99.90;;;10.44;100.00;97689.25;4981978;28;20535;-44
2022/05/14 04:57:45;;;;;;;2.63;1.40;;;10.90;99.90;;;10.53;100.00;97701.31;4982965;28;20037;-45
2022/05/14 05:00:16;;;;;;;2.42;1.70;;;10.90;99.90;;;10.58;100.00;97697.59;4982795;28;20037;-46
2022/05/14 05:05:29;;;;;;;3.33;1.90;;;11.10;99.90;;;10.73;100.00;97695.38;4986268;28;20088;-47
2022/05/14 05:07:55;;;;;;;7.38;1.98;;;11.20;99.90;;;10.86;100.00;97702.00;4984112;28;20481;-45
2022/05/14 05:10:21;;;;;;;4.80;1.88;;;11.30;99.90;;;10.97;100.00;97701.63;4982847;28;21024;-45
2022/05/14 05:12:47;;;;;;;3.65;1.55;;;11.40;99.90;;;11.06;100.00;97703.94;4980093;28;20527;-46
2022/05/14 05:15:12;;;;;;;3.28;1.75;;;11.50;99.90;;;11.10;100.00;97700.28;4982636;28;21562;-45
2022/05/14 05:17:39;;;;;;;2.83;1.70;;;11.60;99.90;;;11.24;100.00;97702.47;4981195;28;20100;-44
2022/05/14 05:20:06;;;;;;;2.38;1.70;;;11.70;99.90;;;11.32;100.00;97703.03;4985806;28;21753;-45
2022/05/14 05:22:32;;;;;;;2.35;1.63;;;11.80;99.90;;;11.51;100.00;97705.91;5000630;22;20054;-50
2022/05/14 05:24:57;;;;;;;2.70;1.60;;;11.90;99.90;;;11.65;100.00;97713.34;4961558;28;20104;-47
2022/05/14 05:27:23;;;;;;;4.75;1.73;;;12.00;99.90;;;11.85;100.00;97712.59;4976327;28;20057;-50
2022/05/14 05:29:49;;;;;;;5.47;1.60;;;12.20;99.90;;;12.12;100.00;97709.88;4980967;28;20061;-52
2022/05/14 05:32:16;;;;;;;4.15;1.60;;;12.40;99.90;;;12.38;100.00;97712.38;4979997;28;20482;-50
2022/05/14 05:34:42;;;;;;;3.55;1.80;;;12.60;99.90;;;12.95;98.21;97722.44;4979695;28;20038;-53
2022/05/14 05:37:07;;;;;;;3.28;1.50;;;12.90;99.90;;;13.93;92.29;97720.03;4985710;28;20127;-53
2022/05/14 05:39:33;;;;;;;2.22;1.25;;;13.40;99.90;;;14.52;86.53;97723.47;4982018;28;20037;-51
2022/05/14 05:42:00;;;;;;;4.22;1.70;;;14.00;99.90;;;14.69;80.93;97723.53;4983681;28;20795;-51
2022/05/14 05:44:26;;;;;;;2.70;1.50;;;14.30;99.90;;;14.96;80.34;97725.78;4982688;28;20041;-53
2022/05/14 05:46:53;;;;;;;3.28;1.55;;;14.60;99.90;;;15.11;76.46;97725.97;4983934;28;20051;-54
2022/05/14 05:49:20;;;;;;;3.20;1.45;;;14.70;99.90;;;15.19;73.76;97727.28;4984186;28;20109;-51
2022/05/14 05:51:45;;;;;;;3.38;1.52;;;14.90;99.90;;;15.21;72.54;97728.06;4992334;28;21828;-50
2022/05/14 05:56:57;;;;;;;5.95;1.75;;;15.00;99.90;;;14.94;70.23;97718.84;4991773;28;20045;-52
2022/05/14 05:59:25;;;;;;;3.53;1.67;;;14.90;99.90;;;14.86;71.96;97719.22;4987261;28;20067;-50
2022/05/14 06:01:52;;;;;;;2.53;1.35;;;14.90;99.90;;;14.67;72.08;97704.19;4992902;28;20125;-49
2022/05/14 06:04:19;;;;;;;2.10;1.30;;;14.90;99.90;;;14.83;73.57;97724.69;4990328;28;20357;-53
2022/05/14 06:06:45;;;;;;;3.05;1.33;;;14.90;99.90;;;14.86;73.69;97730.69;4991547;28;20073;-53
2022/05/14 06:09:15;;;;;;;3.15;1.33;;;15.00;99.90;;;14.94;74.54;97730.31;4993487;28;20095;-50
2022/05/14 06:11:42;;;;;;;2.63;1.27;;;15.10;99.90;;;14.95;71.34;97717.88;4994804;28;20026;-53
2022/05/14 06:14:09;;;;;;;1.45;0.90;;;15.20;99.90;;;15.02;72.31;97730.81;4997972;28;20022;-53
2022/05/14 06:16:35;;;;;;;3.45;1.20;;;15.20;99.90;;;15.10;72.11;97732.22;4980471;28;20627;-51
2022/05/14 06:19:01;;;;;;;2.83;1.00;;;15.30;99.90;;;15.19;69.49;97729.94;4992788;28;20036;-51
2022/05/14 06:21:27;;;;;;;3.28;1.27;;;15.40;99.90;;;15.25;70.16;97726.13;4992472;28;20041;-53
2022/05/14 06:23:54;;;;;;;3.90;1.45;;;15.50;99.90;;;15.33;68.87;97737.25;4995288;28;20041;-55
2022/05/14 06:26:20;;;;;;;1.95;1.13;;;15.60;99.90;;;15.41;68.86;97732.38;4996021;28;20252;-55
2022/05/14 06:28:46;;;;;;;1.80;1.20;;;15.70;99.90;;;15.51;68.66;97729.25;4988902;28;20095;-54
2022/05/14 06:31:12;;;;;;;2.85;1.30;;;15.80;99.90;;;15.61;69.32;97730.50;4997825;28;20395;-54
2022/05/14 06:33:38;;;;;;;1.70;1.10;;;15.80;99.90;;;15.70;70.28;97723.84;4997912;28;20037;-54
2022/05/14 06:36:04;;;;;;;5.00;1.40;;;15.90;99.90;;;15.76;69.39;97726.22;4993139;28;20034;-56
2022/05/14 06:38:29;;;;;;;2.80;1.40;;;16.00;99.90;;;15.78;68.35;97732.31;4996867;28;20087;-54
2022/05/14 06:40:55;;;;;;;5.15;1.35;;;16.10;99.90;;;15.87;68.35;97723.84;4999081;28;20127;-54
2022/05/14 06:43:21;;;;;;;2.85;1.27;;;16.10;99.90;;;15.97;68.26;97726.84;4997443;28;20026;-54
2022/05/14 06:45:47;;;;;;;3.55;1.20;;;16.20;99.90;;;16.11;68.06;97732.28;4999138;28;20496;-55
2022/05/14 06:48:13;;;;;;;3.85;1.40;;;16.30;99.90;;;16.24;67.39;97727.19;4999725;28;20959;-58
2022/05/14 06:50:49;;;;;;;1.63;1.40;;;16.40;99.90;;;16.41;66.88;97721.78;4997120;28;20105;-53
2022/05/14 06:53:18;;;;;;;2.17;1.05;;;16.60;99.90;;;16.53;65.07;97733.56;5002738;28;20038;-49
2022/05/14 06:55:46;;;;;;;1.83;1.10;;;16.80;99.90;;;16.66;64.82;97723.06;4982379;28;20465;-52
2022/05/14 06:58:16;;;;;;;2.67;1.33;;;16.90;99.90;;;16.79;64.33;97733.88;4999535;28;20544;-50
2022/05/14 07:00:43;;;;;;;2.17;1.10;;;17.00;99.90;;;16.92;64.00;97731.41;4999816;28;20520;-53
2022/05/14 07:08:40;;;;;;;3.92;1.48;;;17.30;99.90;;;17.07;60.44;97738.53;4998953;28;20485;-52
2022/05/14 07:11:07;;;;;;;5.57;1.40;;;17.30;99.90;;;17.09;62.23;97733.97;5003734;28;20021;-49
2022/05/14 07:13:33;;;;;;;2.88;1.38;;;17.30;99.90;;;17.20;61.46;97741.34;5002375;28;20133;-52
2022/05/14 07:15:59;;;;;;;2.72;1.20;;;17.40;99.90;;;17.30;60.43;97747.84;5000651;28;20037;-51
2022/05/14 07:18:24;;;;;;;3.85;1.10;;;17.40;99.90;;;17.35;59.82;97747.56;4997828;28;20557;-50
2022/05/14 07:20:50;;;;;;;5.90;1.40;;;17.50;99.90;;;17.41;59.38;97735.69;5000603;28;20080;-53
2022/05/14 07:23:16;;;;;;;2.35;1.13;;;17.50;99.90;;;17.52;60.38;97738.59;5000993;28;20151;-50
2022/05/14 07:25:41;;;;;;;4.72;1.40;;;17.70;99.90;;;17.59;60.37;97736.41;5000133;28;20526;-50
2022/05/14 07:28:08;;;;;;;2.10;1.10;;;17.80;99.90;;;17.72;61.10;97737.38;4999850;28;20108;-53
2022/05/14 07:30:35;;;;;;;5.93;1.48;;;17.90;99.90;;;17.81;59.19;97744.81;5001236;28;20026;-53
2022/05/14 07:33:01;;;;;;;4.53;1.10;;;18.00;99.90;;;17.97;59.38;97742.13;4999667;28;20104;-50
2022/05/14 07:35:27;;;;;;;3.90;1.45;;;18.10;99.90;;;17.96;59.93;97737.72;4996965;28;20041;-51
2022/05/14 07:37:55;;;;;;;7.10;1.88;;;18.20;99.90;;;17.98;62.72;97741.19;4998625;28;20030;-54
2022/05/14 07:40:25;;;;;;;3.83;1.75;;;18.20;99.90;;;18.05;63.02;97745.19;4982213;28;20034;-48
2022/05/14 07:42:58;;;;;;;3.67;1.48;;;18.20;99.90;;;18.13;63.24;97740.22;4995717;28;20033;-51
2022/05/14 07:45:28;;;;;;;3.38;1.38;;;18.30;99.90;;;18.23;65.99;97744.97;4997820;28;22384;-51
2022/05/14 07:47:57;;;;;;;2.20;1.42;;;18.40;99.90;;;18.22;63.50;97748.59;5003740;28;20490;-51
2022/05/14 07:50:23;;;;;;;4.03;1.00;;;18.40;99.90;;;18.26;62.00;97750.13;4997981;28;20038;-53
2022/05/14 07:52:51;;;;;;;3.05;1.55;;;18.40;99.90;;;18.10;57.73;97745.72;4998696;28;22010;-52
2022/05/14 07:55:17;;;;;;;2.65;1.40;;;18.30;99.90;;;18.14;59.37;97741.06;4996826;28;20029;-52
2022/05/14 07:57:43;;;;;;;3.20;1.50;;;18.30;99.90;;;18.26;60.98;97745.63;4996756;28;20030;-52
2022/05/14 08:00:10;;;;;;;4.00;1.50;;;18.40;99.90;;;18.31;60.85;97743.53;4998463;28;20054;-51
2022/05/14 08:02:35;;;;;;;4.85;1.52;;;18.50;99.90;;;18.42;60.41;97745.53;4994998;28;20076;-47
2022/05/14 08:05:08;;;;;;;5.20;1.30;;;18.60;99.90;;;18.54;60.58;97756.38;4996828;28;20030;-50
2022/05/14 08:07:34;;;;;;;2.83;1.10;;;18.70;99.90;;;18.62;59.57;97751.41;4994123;28;20106;-49
2022/05/14 08:10:01;;;;;;;4.28;1.50;;;18.80;99.90;;;18.65;55.40;97752.09;5000740;28;20030;-48
2022/05/14 08:12:38;;;;;;;2.65;1.35;;;18.90;99.90;;;18.60;52.50;97753.34;4999939;28;20435;-50
2022/05/14 08:15:07;;;;;;;2.90;1.00;;;18.80;98.60;;;18.57;52.74;97743.69;5002359;28;20037;-48
2022/05/14 08:17:32;;;;;;;2.25;1.25;;;18.80;98.70;;;18.67;54.13;97746.63;4999225;28;20065;-47
2022/05/14 08:19:58;;;;;;;6.80;1.33;;;18.80;99.00;;;18.72;57.29;97746.31;5001413;28;20058;-47
2022/05/14 08:25:09;;;;;;;4.80;1.42;;;19.00;99.90;;;18.88;54.50;97749.78;4999044;28;20033;-50
2022/05/14 08:27:44;;;;;;;4.35;1.48;;;19.10;99.70;;;18.93;53.34;97734.28;4981589;28;20018;-49
2022/05/14 08:30:16;;;;;;;3.63;1.27;;;19.10;98.90;;;18.87;54.61;97745.38;4979215;28;20065;-48
2022/05/14 08:32:42;;;;;;;3.95;1.23;;;19.10;99.00;;;18.74;52.78;97731.94;4999060;28;20149;-50
2022/05/14 08:35:09;;;;;;;2.63;1.25;;;19.00;98.30;;;18.73;52.79;97743.56;5001227;28;20524;-48
2022/05/14 08:37:35;;;;;;;6.05;1.30;;;18.90;98.00;;;18.73;53.81;97735.53;4997032;28;20046;-48
2022/05/14 08:40:18;;;;;;;2.67;1.30;;;18.90;98.60;;;18.80;53.47;97742.22;4998920;28;20026;-48
2022/05/14 08:42:48;;;;;;;6.07;1.48;;;19.00;98.60;;;18.91;55.03;97732.69;4978486;28;20068;-48
2022/05/14 08:45:15;;;;;;;4.32;1.48;;;19.10;98.80;;;19.03;53.27;97737.22;4990254;28;20599;-48
2022/05/14 08:47:55;;;;;;;3.55;1.23;;;19.20;98.00;;;19.17;52.43;97737.16;4992990;28;20433;-49
2022/05/14 08:50:26;;;;;;;3.38;1.13;;;19.40;97.90;;;19.34;52.22;97735.16;4980967;28;20060;-48
2022/05/14 08:52:55;;;;;;;4.40;1.20;;;19.50;97.60;;;19.37;56.12;97735.81;4980692;28;20485;-50
2022/05/14 08:55:21;;;;;;;4.20;1.30;;;19.60;98.40;;;19.35;56.61;97728.88;5000595;28;20039;-49
2022/05/14 08:58:03;;;;;;;3.60;1.17;;;19.60;99.90;;;19.38;53.73;97725.97;4997147;28;20041;-49
2022/05/14 09:00:28;;;;;;;3.22;1.52;;;19.60;98.50;;;19.38;51.50;97726.84;5011914;28;20398;-51
2022/05/14 09:02:55;;;;;;;2.17;1.42;;;19.60;97.80;;;19.41;53.73;97726.63;5000155;28;20037;-51
2022/05/14 09:05:30;;;;;;;2.40;1.13;;;19.60;98.00;;;19.45;53.95;97725.47;4992210;28;20052;-49
2022/05/14 09:07:56;;;;;;;3.95;1.23;;;19.70;97.20;;;19.52;55.20;97720.53;4994464;28;20497;-52
2022/05/14 09:10:39;;;;;;;5.05;1.50;;;19.70;98.50;;;19.60;50.80;97728.06;4998919;28;20537;-50
2022/05/14 09:13:18;;;;;;;3.70;1.30;;;19.80;96.90;;;19.59;51.37;97721.84;4981795;28;20045;-48
2022/05/14 09:15:59;;;;;;;1.95;1.10;;;19.80;96.50;;;19.63;52.79;97720.69;4996214;28;20030;-50
2022/05/14 09:18:31;;;;;;;2.30;1.17;;;19.80;96.80;;;19.61;53.51;97719.94;4993213;28;20030;-53
2022/05/14 09:21:00;;;;;;;;;;;19.80;97.20;;;19.64;52.55;97718.84;4982324;28;20048;-51
2022/05/14 09:23:38;;;;;;;4.38;1.17;;;19.90;97.10;;;19.61;50.94;97722.63;4994411;28;19971;-51
2022/05/14 09:26:18;;;;;;;6.68;1.55;;;19.80;96.10;;;19.61;48.71;97724.41;4999641;28;20746;-49
2022/05/14 09:28:54;;;;;;;1.58;1.05;;;19.80;95.20;;;19.61;50.11;97719.06;4981518;28;20401;-50
2022/05/14 09:31:39;;;;;;;2.60;1.10;;;19.80;94.90;;;19.68;51.13;97723.03;4998937;28;20080;-50
2022/05/14 09:34:13;;;;;;;2.70;1.13;;;19.90;96.60;;;19.75;49.93;97721.69;4996231;28;20029;-49
2022/05/14 09:36:44;;;;;;;2.70;1.30;;;19.90;95.30;;;19.73;49.40;97714.69;4997162;28;20030;-49
2022/05/14 09:39:17;;;;;;;2.47;0.93;;;19.90;94.70;;;19.74;50.74;97721.78;4998853;28;20029;-51
2022/05/14 09:41:55;;;;;;;6.47;1.55;;;19.90;94.90;;;19.77;56.57;97718.91;4991986;28;20065;-51
2022/05/14 09:44:39;;;;;;;2.45;1.30;;;20.00;97.80;;;19.80;54.76;97708.00;4998014;28;20038;-48
2022/05/14 09:47:15;;;;;;;4.90;1.23;;;20.00;98.10;;;19.88;50.42;97712.78;4984658;28;20125;-50
2022/05/14 09:49:54;;;;;;;4.13;1.42;;;20.10;95.40;;;19.89;50.42;97720.72;5001679;28;20025;-48
2022/05/14 09:52:26;;;;;;;3.92;1.33;;;20.10;94.40;;;19.88;48.73;97712.78;4998399;28;20022;-49
2022/05/14 09:54:53;;;;;;;1.58;1.08;;;20.10;94.10;;;19.67;48.52;97707.06;4988807;28;20032;-51
2022/05/14 09:57:39;;;;;;;3.03;1.33;;;20.00;93.30;;;19.65;49.13;97708.06;4977144;28;20049;-49
2022/05/14 10:00:29;;;;;;;4.50;1.30;;;19.90;94.00;;;19.70;51.07;97712.22;4996883;28;20289;-50
2022/05/14 10:03:07;;;;;;;5.90;1.25;;;19.90;95.40;;;19.75;50.24;97704.78;4976388;28;20041;-48
2022/05/14 10:05:54;;;;;;;1.73;1.00;;;19.90;94.60;;;19.75;50.54;97716.31;4998143;28;20634;-52
2022/05/14 10:08:37;;;;;;;10.30;1.33;;;20.00;95.00;;;19.83;49.09;97711.31;4994817;28;20045;-48
2022/05/14 10:11:17;;;;;;;6.68;1.42;;;20.00;93.80;;;19.88;51.78;97708.28;4992220;28;20496;-50
2022/05/14 10:13:52;;;;;;;5.00;1.20;;;20.10;95.30;;;19.90;54.33;97710.88;4991004;28;20046;-49
2022/05/14 10:16:25;;;;;;;2.15;1.02;;;20.20;95.90;;;19.99;54.70;97696.84;4995084;28;20585;-52
2022/05/14 10:19:00;;;;;;;3.92;1.20;;;20.20;95.80;;;20.08;53.57;97703.34;4977585;28;20073;-52
2022/05/14 10:22:07;;;;;;;4.55;1.00;;;20.30;96.30;;;20.05;53.42;97700.94;4998233;28;20484;-53
2022/05/14 10:28:30;;;;;;;7.60;1.30;;;20.30;96.40;;;20.27;52.46;97701.09;4994881;28;20401;-49
2022/05/14 10:30:59;;;;;;;3.75;1.20;;;20.50;96.90;;;20.28;49.17;97696.56;4995105;28;20026;-50
2022/05/14 10:33:29;;;;;;;2.38;0.95;;;20.50;93.50;;;20.30;49.89;97695.53;4996412;28;20046;-48
2022/05/14 10:36:33;;;;;;;2.78;1.10;;;20.50;94.10;;;20.33;51.18;97689.94;4997003;28;20557;-52
2022/05/14 10:39:13;;;;;;;2.53;1.00;;;20.50;94.10;;;20.46;51.19;97689.91;4975844;28;20072;-49
2022/05/14 10:41:46;;;;;;;5.53;1.17;;;20.60;94.80;;;20.47;48.30;97685.41;4997032;28;20563;-49
2022/05/14 10:44:45;;;;;;;4.07;1.40;;;20.70;93.20;;;20.52;48.55;97689.47;4991196;28;20386;-50
2022/05/14 10:47:12;;;;;;;3.13;1.15;;;20.70;93.20;;;20.63;48.94;97677.97;4988432;28;20046;-48
2022/05/14 10:50:18;;;;;;;4.40;1.45;;;20.80;92.90;;;20.62;48.52;97683.44;4989407;28;20018;-49